createdAt,value
2023-01-11T00:00:46.718Z,100888.31
2023-01-11T00:03:19.151Z,100882.30
2023-01-11T00:05:48.828Z,100893.45
2023-01-11T00:08:18.974Z,100886.54
2023-01-11T00:10:48.798Z,100888.20
2023-01-11T00:13:19.402Z,100890.77
2023-01-11T00:15:49.286Z,100891.60
2023-01-11T00:18:18.975Z,100882.98
2023-01-11T00:20:49.064Z,100883.84
2023-01-11T00:23:18.182Z,100888.97
2023-01-11T00:25:47.556Z,100891.55
2023-01-11T00:28:16.836Z,100893.30
2023-01-11T00:30:48.403Z,100898.45
2023-01-11T00:33:18.417Z,100900.23
2023-01-11T00:35:47.843Z,100895.93
2023-01-11T00:38:37.519Z,100894.27
2023-01-11T00:41:23.204Z,100883.96
2023-01-11T00:44:11.836Z,100888.29
2023-01-11T00:46:59.600Z,100886.63
2023-01-11T00:49:29.356Z,100901.27
2023-01-11T00:51:58.745Z,100913.36
2023-01-11T00:54:27.960Z,100918.54
2023-01-11T00:56:57.395Z,100915.11
2023-01-11T00:59:27.051Z,100915.97
2023-01-11T01:01:57.346Z,100910.88
2023-01-11T01:04:26.534Z,100922.87
2023-01-11T01:06:58.314Z,100918.61
2023-01-11T01:09:27.976Z,100928.02
2023-01-11T01:11:57.214Z,100921.95
2023-01-11T01:14:28.361Z,100922.04
2023-01-11T01:17:00.126Z,100916.95
2023-01-11T01:19:30.691Z,100917.84
2023-01-11T01:22:01.057Z,100917.84
2023-01-11T01:24:32.207Z,100917.89
2023-01-11T01:27:05.060Z,100915.34
2023-01-11T01:29:39.312Z,100911.11
2023-01-11T01:32:10.954Z,100922.34
2023-01-11T01:34:41.350Z,100930.11
2023-01-11T01:37:12.706Z,100924.13
2023-01-11T01:39:41.932Z,100926.73
2023-01-11T01:42:15.487Z,100923.32
2023-01-11T01:45:10.533Z,100923.38
2023-01-11T01:47:45.837Z,100926.85
2023-01-11T01:50:20.912Z,100916.59
2023-01-11T01:52:54.518Z,100916.59
2023-01-11T01:55:28.735Z,100915.80
2023-01-11T01:58:01.671Z,100904.65
2023-01-11T02:00:31.643Z,100915.05
2023-01-11T02:03:02.567Z,100921.13
2023-01-11T02:05:31.810Z,100921.98
2023-01-11T02:08:06.677Z,100921.19
2023-01-11T02:10:37.939Z,100912.62
2023-01-11T02:13:14.111Z,100912.67
2023-01-11T02:15:43.813Z,100912.73
2023-01-11T02:18:14.330Z,100913.62
2023-01-11T02:20:59.407Z,100907.57
2023-01-11T02:24:22.007Z,100909.32
2023-01-11T02:27:19.279Z,100912.80
2023-01-11T02:30:03.373Z,100910.23
2023-01-11T02:32:42.076Z,100910.23
2023-01-11T02:35:20.935Z,100903.44
2023-01-11T02:38:02.206Z,100906.91
2023-01-11T02:40:45.341Z,100906.91
2023-01-11T02:43:39.536Z,100913.77
2023-01-11T02:46:16.933Z,100903.44
2023-01-11T02:48:54.777Z,100893.95
2023-01-11T02:51:32.498Z,100900.01
2023-01-11T02:54:07.498Z,100892.30
2023-01-11T02:56:42.171Z,100897.54
2023-01-11T02:59:15.917Z,100897.54
2023-01-11T03:01:47.074Z,100900.12
2023-01-11T03:04:30.095Z,100906.14
2023-01-11T03:07:15.294Z,100913.94
2023-01-11T03:09:56.487Z,100903.62
2023-01-11T03:12:57.403Z,100898.48
2023-01-11T03:15:55.409Z,100895.05
2023-01-11T03:18:39.875Z,100893.30
2023-01-11T03:21:24.210Z,100901.89
2023-01-11T03:24:05.361Z,100903.64
2023-01-11T03:26:45.021Z,100902.78
2023-01-11T03:29:23.026Z,100901.09
2023-01-11T03:31:57.908Z,100898.51
2023-01-11T03:34:33.721Z,100896.84
2023-01-11T03:37:08.647Z,100895.09
2023-01-11T03:39:44.923Z,100885.61
2023-01-11T03:42:19.626Z,100887.33
2023-01-11T03:44:58.893Z,100887.30
2023-01-11T03:47:31.221Z,100884.72
2023-01-11T03:50:03.949Z,100880.34
2023-01-11T03:52:39.467Z,100883.81
2023-01-11T03:55:13.420Z,100876.92
2023-01-11T03:57:47.189Z,100884.72
2023-01-11T04:00:17.802Z,100882.98
2023-01-11T04:02:47.109Z,100885.58
2023-01-11T04:05:16.638Z,100895.07
2023-01-11T04:07:45.930Z,100891.59
2023-01-11T04:10:15.886Z,100889.91
2023-01-11T04:12:47.762Z,100885.58
2023-01-11T04:15:18.163Z,100894.16
2023-01-11T04:17:47.946Z,100888.14
2023-01-11T04:20:17.481Z,100897.63
2023-01-11T04:22:46.599Z,100897.56
2023-01-11T04:25:17.881Z,100894.07
2023-01-11T04:27:47.289Z,100884.55
2023-01-11T04:30:17.882Z,100889.72
2023-01-11T04:32:47.340Z,100888.03
2023-01-11T04:35:18.063Z,100883.64
2023-01-11T04:37:50.759Z,100885.30
2023-01-11T04:40:20.341Z,100880.12
2023-01-11T04:42:49.746Z,100877.52
2023-01-11T04:45:19.492Z,100878.26
2023-01-11T04:48:05.860Z,100879.98
2023-01-11T04:50:35.449Z,100874.82
2023-01-11T04:53:07.359Z,100874.84
2023-01-11T04:55:39.394Z,100883.44
2023-01-11T04:58:18.203Z,100888.58
2023-01-11T05:00:49.044Z,100888.58
2023-01-11T05:03:19.132Z,100891.13
2023-01-11T05:05:57.588Z,100892.81
2023-01-11T05:08:28.420Z,100892.81
2023-01-11T05:10:59.878Z,100890.20
2023-01-11T05:13:42.824Z,100894.48
2023-01-11T05:16:18.509Z,100899.63
2023-01-11T05:18:55.631Z,100893.59
2023-01-11T05:21:27.929Z,100892.70
2023-01-11T05:24:01.376Z,100897.00
2023-01-11T05:26:34.738Z,100896.11
2023-01-11T05:29:06.470Z,100890.92
2023-01-11T05:31:47.769Z,100896.94
2023-01-11T05:34:20.873Z,100896.08
2023-01-11T05:36:50.441Z,100893.48
2023-01-11T05:39:23.744Z,100892.59
2023-01-11T05:41:52.981Z,100890.00
2023-01-11T05:44:41.387Z,100884.82
2023-01-11T05:47:19.685Z,100878.77
2023-01-11T05:49:50.330Z,100876.17
2023-01-11T05:52:20.340Z,100877.91
2023-01-11T05:54:50.421Z,100874.51
2023-01-11T05:57:24.689Z,100866.77
2023-01-11T05:59:56.464Z,100869.35
2023-01-11T06:02:27.947Z,100862.45
2023-01-11T06:04:57.618Z,100868.44
2023-01-11T06:07:29.394Z,100861.55
2023-01-11T06:10:00.714Z,100864.96
2023-01-11T06:12:31.446Z,100854.65
2023-01-11T06:15:02.184Z,100869.27
2023-01-11T06:17:32.370Z,100860.67
2023-01-11T06:20:02.065Z,100864.02
2023-01-11T06:22:31.307Z,100868.31
2023-01-11T06:25:00.332Z,100860.52
2023-01-11T06:27:33.700Z,100869.98
2023-01-11T06:30:03.220Z,100863.97
2023-01-11T06:32:33.067Z,100869.06
2023-01-11T06:35:01.935Z,100861.33
2023-01-11T06:37:31.634Z,100862.12
2023-01-11T06:40:00.766Z,100861.20
2023-01-11T06:42:30.574Z,100856.02
2023-01-11T06:45:00.144Z,100859.44
2023-01-11T06:47:32.608Z,100858.52
2023-01-11T06:50:01.806Z,100851.64
2023-01-11T06:52:34.429Z,100859.44
2023-01-11T06:55:04.177Z,100862.84
2023-01-11T06:57:33.933Z,100866.28
2023-01-11T07:00:04.390Z,100862.02
2023-01-11T07:02:34.386Z,100862.84
2023-01-11T07:05:03.879Z,100869.69
2023-01-11T07:07:33.657Z,100860.27
2023-01-11T07:10:02.929Z,100866.25
2023-01-11T07:12:33.510Z,100865.39
2023-01-11T07:15:04.867Z,100864.53
2023-01-11T07:17:36.749Z,100872.23
2023-01-11T07:20:09.030Z,100865.33
2023-01-11T07:22:39.383Z,100859.25
2023-01-11T07:25:10.049Z,100868.73
2023-01-11T07:27:41.838Z,100868.83
2023-01-11T07:30:14.428Z,100860.23
2023-01-11T07:32:43.893Z,100867.11
2023-01-11T07:35:13.500Z,100861.20
2023-01-11T07:37:45.357Z,100857.92
2023-01-11T07:40:21.996Z,100839.12
2023-01-11T07:43:11.647Z,100842.73
2023-01-11T07:45:46.206Z,100849.75
2023-01-11T07:48:20.812Z,100849.86
2023-01-11T07:50:52.258Z,100855.13
2023-01-11T07:53:26.145Z,100853.41
2023-01-11T07:55:57.431Z,100847.39
2023-01-11T07:58:27.281Z,100855.94
2023-01-11T08:01:00.495Z,100859.38
2023-01-11T08:03:29.784Z,100848.31
2023-01-11T08:05:59.487Z,100854.34
2023-01-11T08:08:28.682Z,100846.61
2023-01-11T08:11:16.831Z,100847.53
2023-01-11T08:14:05.321Z,100852.77
2023-01-11T08:16:42.935Z,100855.34
2023-01-11T08:19:13.268Z,100847.61
2023-01-11T08:21:44.314Z,100849.27
2023-01-11T08:24:14.363Z,100847.53
2023-01-11T08:26:48.764Z,100847.58
2023-01-11T08:29:18.839Z,100847.58
2023-01-11T08:31:49.158Z,100843.30
2023-01-11T08:34:19.044Z,100847.61
2023-01-11T08:36:48.341Z,100845.78
2023-01-11T08:39:18.015Z,100850.89
2023-01-11T08:41:47.283Z,100846.39
2023-01-11T08:44:22.277Z,100842.90
2023-01-11T08:47:02.799Z,100844.59
2023-01-11T08:49:32.365Z,100845.36
2023-01-11T08:52:01.681Z,100840.16
2023-01-11T08:54:31.171Z,100843.59
2023-01-11T08:57:00.549Z,100847.00
2023-01-11T08:59:30.049Z,100847.80
2023-01-11T09:01:59.518Z,100847.72
2023-01-11T09:04:29.160Z,100855.37
2023-01-11T09:06:58.426Z,100855.42
2023-01-11T09:09:28.036Z,100858.86
2023-01-11T09:11:59.805Z,100850.19
2023-01-11T09:14:30.160Z,100848.41
2023-01-11T09:16:59.602Z,100849.33
2023-01-11T09:19:28.896Z,100838.13
2023-01-11T09:22:00.037Z,100842.45
2023-01-11T09:24:30.571Z,100841.59
2023-01-11T09:27:01.247Z,100827.87
2023-01-11T09:29:30.523Z,100818.44
2023-01-11T09:31:59.682Z,100809.10
2023-01-11T09:34:28.882Z,100804.83
2023-01-11T09:37:00.462Z,100801.36
2023-01-11T09:39:30.009Z,100801.36
2023-01-11T09:42:30.983Z,100808.19
2023-01-11T09:45:13.388Z,100811.68
2023-01-11T09:47:48.374Z,100810.05
2023-01-11T09:50:23.199Z,100805.80
2023-01-11T09:52:56.580Z,100808.41
2023-01-11T09:55:37.634Z,100806.69
2023-01-11T09:58:28.885Z,100804.11
2023-01-11T10:01:06.888Z,100811.84
2023-01-11T10:04:07.712Z,100799.86
2023-01-11T10:06:53.072Z,100794.81
2023-01-11T10:18:22.461Z,100783.88
2023-01-11T10:19:24.850Z,100790.75
2023-01-11T10:21:50.225Z,100786.61
2023-01-11T10:24:27.009Z,100778.08
2023-01-11T10:27:01.657Z,100775.60
2023-01-11T10:29:57.202Z,100778.23
2023-01-11T10:32:54.815Z,100785.45
2023-01-11T10:35:45.134Z,100782.24
2023-01-11T10:38:47.729Z,100777.23
2023-01-11T10:41:32.806Z,100781.62
2023-01-11T10:44:13.163Z,100778.99
2023-01-11T10:46:48.532Z,100773.92
2023-01-11T10:49:43.657Z,100769.67
2023-01-11T10:52:29.045Z,100762.06
2023-01-11T10:55:03.902Z,100754.36
2023-01-11T10:57:59.410Z,100756.17
2023-01-11T11:00:39.932Z,100757.92
2023-01-11T11:03:36.309Z,100750.24
2023-01-11T11:06:14.474Z,100742.49
2023-01-11T11:09:07.551Z,100738.11
2023-01-11T11:11:52.635Z,100732.11
2023-01-11T11:14:30.234Z,100730.34
2023-01-11T11:17:12.112Z,100734.61
2023-01-11T11:19:42.024Z,100723.67
2023-01-11T11:22:13.186Z,100715.23
2023-01-11T11:24:49.725Z,100699.69
2023-01-11T11:27:27.321Z,100699.61
2023-01-11T11:29:58.180Z,100702.11
2023-01-11T11:32:31.307Z,100697.77
2023-01-11T11:35:01.069Z,100694.28
2023-01-11T11:37:35.494Z,100691.63
2023-01-11T11:40:05.776Z,100692.45
2023-01-11T11:42:35.235Z,100688.06
2023-01-11T11:45:17.765Z,100679.48
2023-01-11T11:48:02.913Z,100684.60
2023-01-11T11:50:44.713Z,100683.73
2023-01-11T11:53:25.519Z,100670.79
2023-01-11T11:55:56.354Z,100676.79
2023-01-11T11:58:27.132Z,100668.20
2023-01-11T12:00:57.455Z,100665.62
2023-01-11T12:03:30.046Z,100662.98
2023-01-11T12:06:01.668Z,100661.30
2023-01-11T12:08:33.956Z,100659.54
2023-01-11T12:11:07.051Z,100658.58
2023-01-11T12:13:39.786Z,100661.92
2023-01-11T12:16:25.293Z,100658.41
2023-01-11T12:18:58.549Z,100649.81
2023-01-11T12:21:30.645Z,100642.86
2023-01-11T12:24:18.010Z,100640.25
2023-01-11T12:27:05.663Z,100640.16
2023-01-11T12:29:59.435Z,100642.69
2023-01-11T12:32:59.515Z,100634.11
2023-01-11T12:35:39.441Z,100620.30
2023-01-11T12:38:39.814Z,100630.63
2023-01-11T12:41:50.719Z,100628.88
2023-01-11T12:44:37.432Z,100621.09
2023-01-11T12:47:41.547Z,100625.36
2023-01-11T12:50:20.648Z,100626.21
2023-01-11T12:53:09.821Z,100625.36
2023-01-11T12:56:10.243Z,100622.78
2023-01-11T12:58:45.182Z,100603.81
2023-01-11T13:01:39.502Z,100602.13
2023-01-11T13:04:33.349Z,100592.66
2023-01-11T13:07:11.763Z,100584.92
2023-01-11T13:09:54.856Z,100581.50
2023-01-11T13:12:32.148Z,100578.97
2023-01-11T13:15:17.421Z,100575.48
2023-01-11T13:17:52.943Z,100578.91
2023-01-11T13:20:58.562Z,100579.73
2023-01-11T13:23:35.624Z,100572.74
2023-01-11T13:26:15.955Z,100574.44
2023-01-11T13:28:53.696Z,100580.44
2023-01-11T13:31:38.619Z,100575.23
2023-01-11T13:34:18.799Z,100568.33
2023-01-11T13:36:59.078Z,100565.70
2023-01-11T13:39:44.567Z,100567.41
2023-01-11T13:42:24.528Z,100568.27
2023-01-11T13:45:07.327Z,100562.25
2023-01-11T13:47:42.152Z,100569.03
2023-01-11T13:50:21.601Z,100561.28
2023-01-11T13:53:09.331Z,100567.25
2023-01-11T13:55:52.586Z,100574.06
2023-01-11T13:58:28.754Z,100570.53
2023-01-11T14:01:07.559Z,100561.87
2023-01-11T14:03:48.263Z,100560.96
2023-01-11T14:06:42.355Z,100566.94
2023-01-11T14:09:24.584Z,100561.70
2023-01-11T14:12:05.382Z,100554.81
2023-01-11T14:15:14.938Z,100553.88
2023-01-11T14:18:16.735Z,100558.11
2023-01-11T14:20:56.701Z,100560.67
2023-01-11T14:23:32.907Z,100554.63
2023-01-11T14:26:41.989Z,100554.59
2023-01-11T14:29:30.911Z,100546.78
2023-01-11T14:32:15.131Z,100534.70
2023-01-11T14:35:13.298Z,100539.79
2023-01-11T14:38:12.835Z,100547.45
2023-01-11T14:40:56.340Z,100538.81
2023-01-11T14:43:47.444Z,100535.37
2023-01-11T14:46:48.531Z,100542.20
2023-01-11T14:49:31.291Z,100537.02
2023-01-11T14:52:04.618Z,100543.87
2023-01-11T14:54:44.900Z,100530.89
2023-01-11T14:57:37.322Z,100529.98
2023-01-11T15:00:59.921Z,100526.49
2023-01-11T15:03:56.124Z,100535.87
2023-01-11T15:06:30.947Z,100524.66
2023-01-11T15:09:00.468Z,100515.22
2023-01-11T15:11:37.020Z,100512.58
2023-01-11T15:14:28.770Z,100515.99
2023-01-11T15:17:19.571Z,100515.09
2023-01-11T15:19:51.194Z,100508.15
2023-01-11T15:22:31.854Z,100506.41
2023-01-11T15:25:03.618Z,100505.52
2023-01-11T15:27:36.651Z,100497.77
2023-01-11T15:30:28.974Z,100504.59
2023-01-11T15:36:08.133Z,100501.98
2023-01-11T15:38:51.023Z,100500.22
2023-01-11T15:42:04.373Z,100489.94
2023-01-11T15:45:04.041Z,100483.03
2023-01-11T15:47:58.214Z,100485.60
2023-01-11T15:51:01.167Z,100475.30
2023-01-11T15:54:06.583Z,100481.30
2023-01-11T15:56:58.154Z,100465.84
2023-01-11T16:00:03.914Z,100474.47
2023-01-11T16:03:17.131Z,100476.16
2023-01-11T16:06:00.221Z,100486.52
2023-01-11T16:08:40.374Z,100470.17
2023-01-11T16:11:24.154Z,100475.34
2023-01-11T16:14:15.582Z,100473.66
2023-01-11T16:16:53.069Z,100471.08
2023-01-11T16:19:30.345Z,100480.49
2023-01-11T16:22:06.070Z,100480.55
2023-01-11T16:24:46.552Z,100490.88
2023-01-11T16:27:29.190Z,100483.14
2023-01-11T16:30:03.155Z,100477.99
2023-01-11T16:32:36.176Z,100475.47
2023-01-11T16:35:23.879Z,100481.47
2023-01-11T16:38:01.707Z,100481.50
2023-01-11T16:40:37.944Z,100491.80
2023-01-11T16:43:22.042Z,100491.88
2023-01-11T16:45:57.218Z,100491.88
2023-01-11T16:48:32.163Z,100489.32
2023-01-11T16:51:07.908Z,100487.66
2023-01-11T16:53:44.378Z,100498.84
2023-01-11T16:56:22.014Z,100491.14
2023-01-11T16:59:20.060Z,100477.42
2023-01-11T17:01:57.377Z,100488.63
2023-01-11T17:04:34.491Z,100486.97
2023-01-11T17:07:16.352Z,100477.53
2023-01-11T17:09:49.359Z,100467.30
2023-01-11T17:12:32.268Z,100469.95
2023-01-11T17:15:20.791Z,100460.55
2023-01-11T17:17:56.209Z,100462.30
2023-01-11T17:20:33.862Z,100470.11
2023-01-11T17:23:08.234Z,100473.59
2023-01-11T17:25:44.849Z,100471.03
2023-01-11T17:28:27.525Z,100472.77
2023-01-11T17:31:02.068Z,100468.52
2023-01-11T17:33:36.159Z,100458.25
2023-01-11T17:36:08.343Z,100451.41
2023-01-11T17:38:42.214Z,100450.58
2023-01-11T17:41:31.597Z,100452.34
2023-01-11T17:44:23.136Z,100447.23
2023-01-11T17:46:56.941Z,100446.41
2023-01-11T17:49:33.724Z,100440.42
2023-01-11T17:52:23.699Z,100435.28
2023-01-11T17:55:14.385Z,100440.44
2023-01-11T17:58:05.505Z,100441.32
2023-01-11T18:00:38.823Z,100436.16
2023-01-11T18:03:18.712Z,100443.92
2023-01-11T18:05:51.543Z,100430.13
2023-01-11T18:08:25.143Z,100437.86
2023-01-11T18:10:59.791Z,100443.02
2023-01-11T18:13:40.640Z,100439.58
2023-01-11T18:16:21.202Z,100435.27
2023-01-11T18:18:56.855Z,100438.69
2023-01-11T18:21:54.813Z,100436.95
2023-01-11T18:24:46.268Z,100433.52
2023-01-11T18:27:26.259Z,100428.34
2023-01-11T18:30:11.576Z,100417.98
2023-01-11T18:32:45.933Z,100413.67
2023-01-11T18:35:20.884Z,100418.79
2023-01-11T18:37:54.579Z,100407.51
2023-01-11T18:40:31.370Z,100404.02
2023-01-11T18:43:04.129Z,100402.20
2023-01-11T18:45:37.296Z,100396.13
2023-01-11T18:48:15.667Z,100394.38
2023-01-11T18:50:49.570Z,100392.56
2023-01-11T18:53:23.905Z,100401.97
2023-01-11T18:55:58.059Z,100401.95
2023-01-11T18:58:31.449Z,100414.81
2023-01-11T19:01:06.022Z,100414.77
2023-01-11T19:03:41.074Z,100417.32
2023-01-11T19:06:19.822Z,100412.15
2023-01-11T19:08:52.296Z,100403.53
2023-01-11T19:11:29.891Z,100402.68
2023-01-11T19:14:03.636Z,100403.47
2023-01-11T19:16:43.992Z,100401.77
2023-01-11T19:19:17.458Z,100399.14
2023-01-11T19:21:50.633Z,100394.86
2023-01-11T19:24:25.356Z,100392.28
2023-01-11T19:26:59.234Z,100391.40
2023-01-11T19:29:30.945Z,100381.91
2023-01-11T19:32:03.741Z,100380.17
2023-01-11T19:34:37.463Z,100382.75
2023-01-11T19:37:10.890Z,100387.90
2023-01-11T19:39:43.664Z,100386.16
2023-01-11T19:42:16.450Z,100384.44
2023-01-11T19:44:49.280Z,100377.58
2023-01-11T19:47:22.673Z,100381.84
2023-01-11T19:49:59.776Z,100384.42
2023-01-11T19:52:34.251Z,100375.78
2023-01-11T19:55:07.654Z,100380.08
2023-01-11T19:57:41.876Z,100382.61
2023-01-11T20:00:17.448Z,100380.84
2023-01-11T20:02:49.986Z,100379.94
2023-01-11T20:05:22.696Z,100379.07
2023-01-11T20:07:56.445Z,100370.44
2023-01-11T20:10:29.026Z,100362.64
2023-01-11T20:13:01.930Z,100364.31
2023-01-11T20:15:34.446Z,100356.55
2023-01-11T20:18:07.399Z,100361.64
2023-01-11T20:20:40.734Z,100353.92
2023-01-11T20:23:13.551Z,100359.05
2023-01-11T20:25:46.058Z,100352.16
2023-01-11T20:28:20.570Z,100351.27
2023-01-11T20:30:53.684Z,100355.59
2023-01-11T20:33:28.880Z,100339.30
2023-01-11T20:35:59.856Z,100341.92
2023-01-11T20:38:32.896Z,100339.36
2023-01-11T20:41:14.679Z,100340.28
2023-01-11T20:43:53.560Z,100330.88
2023-01-11T20:46:40.428Z,100333.49
2023-01-11T20:49:21.333Z,100332.73
2023-01-11T20:52:03.388Z,100338.80
2023-01-11T20:54:37.287Z,100342.30
2023-01-11T20:57:12.787Z,100331.20
2023-01-11T20:59:46.232Z,100331.30
2023-01-11T21:02:18.649Z,100322.74
2023-01-11T21:04:51.378Z,100322.81
2023-01-11T21:07:34.190Z,100324.56
2023-01-11T21:10:08.375Z,100325.47
2023-01-11T21:12:40.861Z,100322.92
2023-01-11T21:15:14.551Z,100331.55
2023-01-11T21:17:46.920Z,100326.47
2023-01-11T21:20:20.185Z,100323.91
2023-01-11T21:22:52.462Z,100322.23
2023-01-11T21:28:04.242Z,100324.88
2023-01-11T21:30:37.758Z,100322.30
2023-01-11T21:33:10.173Z,100323.20
2023-01-11T21:35:43.686Z,100318.95
2023-01-11T21:38:16.520Z,100322.45
2023-01-11T21:40:49.736Z,100318.19
2023-01-11T21:43:22.127Z,100313.89
2023-01-11T21:46:04.450Z,100315.67
2023-01-11T21:48:37.237Z,100313.95
2023-01-11T21:51:11.535Z,100315.70
2023-01-11T21:53:43.803Z,100313.17
2023-01-11T21:56:16.624Z,100318.36
2023-01-11T21:58:50.544Z,100321.83
2023-01-11T22:01:25.186Z,100323.62
2023-01-11T22:04:15.834Z,100315.01
2023-01-11T22:06:51.448Z,100321.91
2023-01-11T22:09:27.430Z,100322.80
2023-01-11T22:12:05.069Z,100319.39
2023-01-11T22:14:37.365Z,100316.82
2023-01-11T22:17:09.878Z,100308.30
2023-01-11T22:19:42.232Z,100318.62
2023-01-11T22:22:14.696Z,100312.63
2023-01-11T22:24:47.436Z,100310.09
2023-01-11T22:27:25.545Z,100304.95
2023-01-11T22:30:00.257Z,100306.69
2023-01-11T22:32:34.440Z,100304.97
2023-01-11T22:35:07.319Z,100307.59
2023-01-11T22:37:39.858Z,100304.17
2023-01-11T22:40:15.312Z,100304.18
2023-01-11T22:42:47.977Z,100311.06
2023-01-11T22:45:20.592Z,100301.59
2023-01-11T22:48:00.996Z,100304.19
2023-01-11T22:50:33.504Z,100299.03
2023-01-11T22:53:06.352Z,100294.77
2023-01-11T22:55:38.650Z,100296.50
2023-01-11T22:58:11.541Z,100299.92
2023-01-11T23:00:44.108Z,100293.08
2023-01-11T23:03:18.367Z,100305.13
2023-01-11T23:05:51.184Z,100303.41
2023-01-11T23:08:23.822Z,100308.56
2023-01-11T23:11:02.115Z,100301.71
2023-01-11T23:14:01.826Z,100305.13
2023-01-11T23:16:37.819Z,100311.13
2023-01-11T23:19:12.578Z,100313.72
2023-01-11T23:21:46.205Z,100311.97
2023-01-11T23:24:19.752Z,100310.23
2023-01-11T23:26:53.151Z,100306.76
2023-01-11T23:29:27.020Z,100309.33
2023-01-11T23:32:03.998Z,100306.70
2023-01-11T23:34:36.669Z,100313.60
2023-01-11T23:37:09.016Z,100309.27
2023-01-11T23:39:41.852Z,100303.22
2023-01-11T23:42:32.396Z,100315.26
2023-01-11T23:45:07.030Z,100311.78
2023-01-11T23:47:39.339Z,100310.05
2023-01-11T23:50:12.673Z,100309.19
2023-01-11T23:52:45.179Z,100309.19
2023-01-11T23:55:18.082Z,100302.30
2023-01-11T23:58:09.717Z,100310.05
